createdAt,value
2022-07-28T00:01:32.714Z,75.19
2022-07-28T00:03:59.658Z,79.81
2022-07-28T00:06:26.412Z,79.42
2022-07-28T00:08:53.139Z,76.34
2022-07-28T00:11:20.011Z,76.14
2022-07-28T00:13:46.740Z,77.33
2022-07-28T00:16:13.677Z,77.55
2022-07-28T00:18:41.237Z,77.15
2022-07-28T00:21:07.949Z,80.45
2022-07-28T00:23:39.250Z,79.33
2022-07-28T00:26:07.574Z,80.38
2022-07-28T00:28:34.447Z,81.93
2022-07-28T00:31:05.599Z,84.78
2022-07-28T00:33:35.131Z,81.35
2022-07-28T00:36:01.802Z,84.22
2022-07-28T00:38:28.620Z,85.51
2022-07-28T00:41:13.925Z,84.24
2022-07-28T00:43:46.597Z,83.56
2022-07-28T00:46:15.260Z,79.90
2022-07-28T00:48:47.840Z,83.75
2022-07-28T00:51:16.369Z,81.24
2022-07-28T00:53:43.766Z,80.71
2022-07-28T00:56:11.173Z,82.58
2022-07-28T00:58:39.596Z,85.62
2022-07-28T01:01:11.818Z,89.21
2022-07-28T01:03:40.819Z,85.88
2022-07-28T01:06:32.707Z,83.12
2022-07-28T01:09:08.439Z,84.45
2022-07-28T01:11:59.189Z,86.15
2022-07-28T01:14:38.903Z,89.57
2022-07-28T01:17:25.429Z,86.46
2022-07-28T01:20:10.343Z,88.83
2022-07-28T01:22:42.470Z,86.98
2022-07-28T01:25:24.521Z,85.30
2022-07-28T01:28:25.173Z,86.15
2022-07-28T01:30:55.590Z,84.30
2022-07-28T01:33:32.338Z,89.25
2022-07-28T01:36:03.125Z,89.68
2022-07-28T01:38:32.532Z,87.35
2022-07-28T01:41:01.122Z,91.38
2022-07-28T01:43:29.150Z,89.18
2022-07-28T01:45:57.420Z,84.57
2022-07-28T01:48:25.309Z,89.29
2022-07-28T01:50:54.873Z,87.67
2022-07-28T01:53:22.745Z,88.94
2022-07-28T01:55:50.308Z,88.25
2022-07-28T01:58:19.355Z,92.34
2022-07-28T02:00:49.707Z,93.86
2022-07-28T02:03:18.380Z,94.60
2022-07-28T02:05:46.180Z,92.31
2022-07-28T02:08:14.046Z,97.09
2022-07-28T02:10:42.296Z,94.12
2022-07-28T02:13:10.569Z,95.71
2022-07-28T02:15:38.048Z,92.76
2022-07-28T02:18:06.403Z,91.86
2022-07-28T02:20:33.873Z,88.02
2022-07-28T02:23:00.926Z,90.66
2022-07-28T02:25:30.798Z,89.68
2022-07-28T02:28:01.865Z,88.20
2022-07-28T02:30:40.472Z,92.20
2022-07-28T02:33:18.703Z,88.50
2022-07-28T02:35:56.786Z,85.43
2022-07-28T02:38:35.570Z,90.46
2022-07-28T02:41:24.414Z,90.91
2022-07-28T02:43:53.103Z,90.39
2022-07-28T02:46:23.685Z,88.25
2022-07-28T02:48:54.600Z,87.94
2022-07-28T02:51:23.878Z,89.63
2022-07-28T02:53:51.892Z,89.69
2022-07-28T02:56:19.274Z,91.95
2022-07-28T02:58:46.886Z,92.24
2022-07-28T03:01:19.794Z,91.25
2022-07-28T03:03:46.873Z,91.35
2022-07-28T03:06:13.673Z,93.84
2022-07-28T03:08:40.479Z,92.96
2022-07-28T03:11:12.316Z,92.25
2022-07-28T03:13:40.099Z,90.32
2022-07-28T03:16:07.427Z,94.40
2022-07-28T03:18:34.260Z,94.56
2022-07-28T03:21:01.373Z,89.81
2022-07-28T03:23:38.657Z,87.27
2022-07-28T03:26:27.727Z,84.75
2022-07-28T03:28:55.645Z,84.12
2022-07-28T03:31:23.025Z,85.47
2022-07-28T03:33:49.813Z,83.72
2022-07-28T03:36:20.058Z,83.81
2022-07-28T03:38:52.460Z,82.54
2022-07-28T03:41:20.357Z,82.03
2022-07-28T03:43:47.905Z,83.63
2022-07-28T03:46:14.588Z,81.57
2022-07-28T03:48:41.603Z,81.56
2022-07-28T03:51:08.322Z,81.83
2022-07-28T03:53:35.194Z,81.06
2022-07-28T03:56:03.334Z,81.22
2022-07-28T03:58:31.007Z,87.32
2022-07-28T04:00:58.601Z,85.08
2022-07-28T04:03:36.668Z,83.50
2022-07-28T04:06:13.644Z,83.39
2022-07-28T04:08:40.382Z,81.81
2022-07-28T04:11:07.277Z,82.91
2022-07-28T04:13:36.644Z,86.99
2022-07-28T04:16:03.609Z,82.78
2022-07-28T04:18:31.228Z,80.45
2022-07-28T04:20:58.440Z,82.32
2022-07-28T04:23:25.232Z,83.58
2022-07-28T04:25:51.984Z,85.43
2022-07-28T04:28:18.819Z,84.00
2022-07-28T04:30:45.934Z,82.05
2022-07-28T04:33:13.369Z,82.05
2022-07-28T04:35:40.476Z,84.11
2022-07-28T04:38:07.822Z,84.40
2022-07-28T04:40:34.806Z,83.33
2022-07-28T04:43:01.931Z,81.79
2022-07-28T04:45:28.589Z,82.78
2022-07-28T04:47:55.370Z,83.29
2022-07-28T04:50:22.322Z,84.08
2022-07-28T04:52:57.586Z,83.62
2022-07-28T04:55:24.792Z,84.02
2022-07-28T04:57:51.738Z,83.46
2022-07-28T05:00:19.994Z,86.21
2022-07-28T05:02:50.103Z,83.98
2022-07-28T05:05:16.971Z,84.97
2022-07-28T05:07:44.204Z,85.01
2022-07-28T05:10:11.903Z,83.83
2022-07-28T05:12:38.889Z,83.21
2022-07-28T05:15:06.531Z,82.96
2022-07-28T05:17:33.362Z,84.79
2022-07-28T05:20:00.213Z,85.47
2022-07-28T05:22:41.367Z,84.63
2022-07-28T05:25:18.581Z,84.28
2022-07-28T05:27:46.491Z,83.18
2022-07-28T05:30:14.871Z,84.65
2022-07-28T05:32:41.797Z,84.67
2022-07-28T05:35:09.071Z,82.44
2022-07-28T05:37:36.788Z,83.81
2022-07-28T05:40:08.552Z,83.08
2022-07-28T05:42:38.044Z,81.98
2022-07-28T05:45:14.976Z,81.81
2022-07-28T05:47:46.522Z,81.73
2022-07-28T05:50:14.806Z,82.37
2022-07-28T05:52:41.745Z,82.08
2022-07-28T05:55:09.234Z,79.65
2022-07-28T05:57:36.908Z,77.02
2022-07-28T06:00:06.606Z,60.32
2022-07-28T06:02:39.296Z,51.25
2022-07-28T06:05:06.715Z,45.75
2022-07-28T06:07:43.427Z,40.80
2022-07-28T06:10:15.872Z,38.31
2022-07-28T06:12:43.947Z,38.22
2022-07-28T06:15:15.365Z,37.11
2022-07-28T06:17:42.321Z,39.77
2022-07-28T06:20:10.382Z,39.79
2022-07-28T06:22:53.012Z,40.75
2022-07-28T06:25:22.304Z,39.16
2022-07-28T06:27:50.398Z,39.61
2022-07-28T06:30:18.380Z,41.68
2022-07-28T06:32:46.080Z,44.52
2022-07-28T06:35:16.442Z,43.63
2022-07-28T06:37:44.065Z,40.42
2022-07-28T06:40:14.178Z,41.04
2022-07-28T06:42:44.942Z,40.68
2022-07-28T06:45:20.922Z,42.80
2022-07-28T06:47:49.367Z,43.21
2022-07-28T06:50:26.340Z,43.91
2022-07-28T06:52:55.097Z,43.88
2022-07-28T06:55:22.044Z,43.70
2022-07-28T06:57:49.263Z,46.65
2022-07-28T07:00:16.316Z,49.59
2022-07-28T07:02:43.457Z,52.77
2022-07-28T07:05:12.203Z,53.89
2022-07-28T07:07:42.997Z,56.67
2022-07-28T07:10:11.123Z,57.08
2022-07-28T07:12:38.101Z,58.99
2022-07-28T07:15:06.078Z,57.24
2022-07-28T07:17:32.921Z,61.18
2022-07-28T07:19:59.654Z,59.64
2022-07-28T07:22:26.359Z,55.87
2022-07-28T07:24:56.932Z,56.12
2022-07-28T07:27:24.975Z,52.20
2022-07-28T07:29:51.780Z,50.29
2022-07-28T07:32:18.434Z,49.92
2022-07-28T07:34:45.256Z,48.44
2022-07-28T07:37:13.831Z,49.45
2022-07-28T07:39:41.550Z,48.82
2022-07-28T07:42:09.085Z,48.13
2022-07-28T07:44:35.984Z,48.18
2022-07-28T07:47:03.110Z,47.06
2022-07-28T07:49:45.399Z,47.82
2022-07-28T07:52:15.186Z,47.56
2022-07-28T07:54:42.287Z,48.05
2022-07-28T07:57:09.810Z,47.19
2022-07-28T07:59:36.839Z,46.18
2022-07-28T08:02:04.153Z,47.31
2022-07-28T08:04:37.183Z,47.09
2022-07-28T08:07:04.226Z,48.54
2022-07-28T08:09:31.076Z,48.73
2022-07-28T08:11:58.287Z,47.40
2022-07-28T08:14:25.455Z,49.80
2022-07-28T08:16:52.488Z,50.23
2022-07-28T08:19:21.575Z,49.99
2022-07-28T08:21:49.125Z,52.09
2022-07-28T08:24:17.794Z,52.04
2022-07-28T08:27:00.106Z,50.28
2022-07-28T08:29:28.865Z,48.17
2022-07-28T08:31:58.068Z,49.39
2022-07-28T08:34:31.511Z,47.96
2022-07-28T08:37:04.488Z,47.57
2022-07-28T08:39:33.200Z,46.82
2022-07-28T08:42:12.507Z,47.47
2022-07-28T08:44:55.125Z,47.73
2022-07-28T08:47:40.287Z,47.84
2022-07-28T08:50:15.944Z,48.86
2022-07-28T08:52:45.683Z,48.43
2022-07-28T08:55:19.124Z,49.42
2022-07-28T09:00:39.011Z,47.71
2022-07-28T09:03:06.761Z,48.45
2022-07-28T09:05:34.661Z,49.60
2022-07-28T09:08:02.264Z,49.60
2022-07-28T09:10:29.372Z,49.16
2022-07-28T09:12:58.339Z,48.13
2022-07-28T09:15:25.412Z,49.13
2022-07-28T09:17:52.464Z,49.32
2022-07-28T09:20:20.529Z,48.57
2022-07-28T09:23:04.420Z,48.29
2022-07-28T09:25:35.870Z,47.70
2022-07-28T09:28:11.294Z,47.59
2022-07-28T09:30:48.403Z,48.40
2022-07-28T09:33:41.933Z,48.36
2022-07-28T09:36:15.137Z,49.16
2022-07-28T09:38:42.236Z,49.21
2022-07-28T09:41:11.905Z,48.59
2022-07-28T09:43:40.246Z,47.58
2022-07-28T09:46:11.707Z,47.95
2022-07-28T09:48:55.380Z,46.97
2022-07-28T09:51:30.850Z,46.29
2022-07-28T09:54:12.614Z,46.34
2022-07-28T09:56:41.798Z,46.42
2022-07-28T09:59:09.282Z,45.62
2022-07-28T10:02:01.829Z,46.04
2022-07-28T10:04:53.706Z,45.47
2022-07-28T10:07:20.689Z,44.30
2022-07-28T10:10:07.884Z,42.93
2022-07-28T10:12:41.913Z,43.75
2022-07-28T10:15:35.536Z,44.55
2022-07-28T10:18:02.607Z,44.98
2022-07-28T10:20:33.638Z,44.70
2022-07-28T10:23:09.864Z,44.17
2022-07-28T10:25:39.916Z,43.64
2022-07-28T10:28:07.036Z,44.32
2022-07-28T10:30:38.037Z,43.74
2022-07-28T10:33:05.963Z,42.72
2022-07-28T10:35:33.582Z,42.65
2022-07-28T10:38:21.531Z,43.35
2022-07-28T10:40:48.600Z,43.14
2022-07-28T10:43:16.123Z,42.97
2022-07-28T10:46:04.422Z,43.29
2022-07-28T10:48:30.869Z,43.54
2022-07-28T10:50:59.767Z,42.10
2022-07-28T10:53:53.102Z,42.06
2022-07-28T10:56:38.768Z,42.09
2022-07-28T10:59:11.430Z,41.97
2022-07-28T11:01:49.607Z,42.34
2022-07-28T11:04:47.988Z,42.69
2022-07-28T11:07:17.088Z,41.79
2022-07-28T11:09:45.005Z,42.08
2022-07-28T11:12:15.305Z,40.69
2022-07-28T11:14:43.203Z,41.31
2022-07-28T11:17:11.369Z,40.38
2022-07-28T11:20:25.007Z,40.75
2022-07-28T11:22:33.946Z,41.08
2022-07-28T11:25:18.521Z,41.45
2022-07-28T11:27:50.014Z,40.67
2022-07-28T11:30:26.081Z,41.04
2022-07-28T11:32:55.894Z,40.52
2022-07-28T11:35:33.473Z,40.68
2022-07-28T11:38:03.586Z,41.65
2022-07-28T11:40:31.183Z,41.13
2022-07-28T11:43:36.169Z,41.64
2022-07-28T11:46:09.372Z,41.39
2022-07-28T11:48:42.036Z,41.19
2022-07-28T11:51:15.153Z,41.62
2022-07-28T11:53:49.844Z,42.23
2022-07-28T11:56:23.266Z,42.67
2022-07-28T11:59:01.180Z,41.31
2022-07-28T12:01:31.720Z,41.90
2022-07-28T12:04:00.072Z,41.12
2022-07-28T12:06:35.838Z,42.13
2022-07-28T12:09:06.929Z,41.97
2022-07-28T12:11:41.674Z,42.16
2022-07-28T12:14:14.184Z,42.58
2022-07-28T12:16:43.498Z,42.53
2022-07-28T12:19:11.556Z,42.27
2022-07-28T12:22:00.362Z,42.67
2022-07-28T12:24:32.090Z,42.79
2022-07-28T12:27:14.813Z,43.22
2022-07-28T12:29:43.844Z,42.96
2022-07-28T12:32:17.715Z,42.12
2022-07-28T12:34:46.969Z,42.36
2022-07-28T12:37:14.435Z,42.97
2022-07-28T12:39:46.288Z,41.31
2022-07-28T12:42:16.137Z,41.49
2022-07-28T12:44:46.999Z,41.51
2022-07-28T12:47:24.743Z,41.10
2022-07-28T12:50:13.038Z,41.49
2022-07-28T12:52:42.084Z,41.72
2022-07-28T12:55:25.439Z,41.99
2022-07-28T12:57:52.960Z,42.30
2022-07-28T13:00:22.974Z,42.17
2022-07-28T13:02:52.159Z,42.72
2022-07-28T13:05:29.167Z,42.29
2022-07-28T13:08:02.153Z,42.30
2022-07-28T13:10:31.172Z,42.22
2022-07-28T13:13:03.488Z,42.54
2022-07-28T13:15:30.786Z,42.65
2022-07-28T13:17:58.943Z,42.08
2022-07-28T13:20:26.584Z,42.62
2022-07-28T13:22:54.141Z,42.56
2022-07-28T13:25:22.234Z,42.21
2022-07-28T13:27:55.089Z,42.36
2022-07-28T13:30:26.240Z,42.78
2022-07-28T13:32:54.876Z,42.26
2022-07-28T13:35:23.163Z,40.95
2022-07-28T13:37:50.472Z,41.25
2022-07-28T13:40:18.772Z,41.20
2022-07-28T13:42:53.176Z,40.73
2022-07-28T13:45:30.354Z,41.21
2022-07-28T13:47:57.778Z,40.84
2022-07-28T13:50:25.171Z,41.65
2022-07-28T13:52:56.190Z,41.60
2022-07-28T13:55:27.356Z,41.45
2022-07-28T13:57:55.184Z,41.53
2022-07-28T14:00:24.280Z,40.45
2022-07-28T14:02:51.804Z,40.98
2022-07-28T14:05:19.313Z,41.47
2022-07-28T14:07:48.738Z,41.59
2022-07-28T14:10:18.035Z,40.63
2022-07-28T14:12:46.206Z,40.66
2022-07-28T14:15:14.259Z,42.06
2022-07-28T14:17:41.655Z,41.41
2022-07-28T14:20:16.841Z,40.74
2022-07-28T14:22:46.850Z,40.82
2022-07-28T14:25:19.728Z,41.30
2022-07-28T14:27:49.387Z,40.51
2022-07-28T14:30:16.847Z,40.68
2022-07-28T14:32:52.489Z,40.66
2022-07-28T14:35:20.535Z,40.05
2022-07-28T14:38:35.483Z,40.31
2022-07-28T14:40:38.171Z,40.71
2022-07-28T14:43:09.498Z,40.41
2022-07-28T14:46:01.456Z,39.71
2022-07-28T14:48:26.947Z,40.70
2022-07-28T14:50:55.599Z,40.50
2022-07-28T14:53:23.852Z,41.42
2022-07-28T14:56:42.324Z,40.89
2022-07-28T14:59:13.844Z,40.90
2022-07-28T15:01:42.190Z,40.14
2022-07-28T15:04:17.984Z,40.84
2022-07-28T15:06:46.073Z,41.29
2022-07-28T15:09:16.888Z,41.75
2022-07-28T15:11:46.328Z,41.76
2022-07-28T15:14:25.558Z,41.36
2022-07-28T15:16:55.000Z,41.31
2022-07-28T15:19:22.304Z,41.17
2022-07-28T15:21:53.236Z,41.18
2022-07-28T15:24:27.550Z,41.60
2022-07-28T15:26:58.094Z,42.24
2022-07-28T15:29:25.477Z,41.12
2022-07-28T15:31:53.038Z,40.83
2022-07-28T15:34:20.861Z,40.57
2022-07-28T15:36:49.995Z,41.06
2022-07-28T15:39:17.120Z,40.92
2022-07-28T15:41:45.653Z,41.11
2022-07-28T15:44:14.306Z,41.24
2022-07-28T15:46:41.851Z,41.21
2022-07-28T15:49:10.312Z,40.68
2022-07-28T15:51:38.776Z,40.46
2022-07-28T15:54:06.415Z,40.49
2022-07-28T15:56:35.243Z,42.05
2022-07-28T15:59:03.975Z,42.19
2022-07-28T16:01:31.385Z,42.44
2022-07-28T16:03:59.532Z,43.12
2022-07-28T16:06:47.472Z,43.76
2022-07-28T16:09:17.762Z,43.08
2022-07-28T16:11:45.377Z,42.54
2022-07-28T16:14:12.435Z,43.06
2022-07-28T16:16:39.612Z,42.72
2022-07-28T16:19:25.154Z,42.74
2022-07-28T16:21:55.303Z,42.34
2022-07-28T16:24:22.182Z,42.56
2022-07-28T16:26:49.211Z,42.99
2022-07-28T16:29:16.085Z,42.88
2022-07-28T16:31:45.345Z,42.75
2022-07-28T16:34:12.444Z,43.01
2022-07-28T16:36:42.435Z,43.07
2022-07-28T16:39:09.622Z,43.15
2022-07-28T16:41:46.981Z,43.36
2022-07-28T16:44:16.028Z,42.97
2022-07-28T16:46:43.363Z,43.08
2022-07-28T16:49:10.207Z,42.89
2022-07-28T16:51:37.045Z,42.98
2022-07-28T16:54:04.299Z,42.64
2022-07-28T16:56:31.180Z,42.91
2022-07-28T16:59:03.215Z,43.19
2022-07-28T17:01:30.283Z,42.52
2022-07-28T17:03:57.231Z,43.09
2022-07-28T17:06:24.089Z,43.42
2022-07-28T17:08:51.410Z,43.51
2022-07-28T17:11:21.017Z,43.24
2022-07-28T17:13:51.469Z,43.48
2022-07-28T17:16:19.271Z,43.19
2022-07-28T17:18:46.754Z,43.21
2022-07-28T17:21:16.642Z,43.28
2022-07-28T17:23:44.202Z,43.62
2022-07-28T17:28:58.759Z,43.66
2022-07-28T17:31:25.675Z,43.00
2022-07-28T17:33:52.595Z,43.81
2022-07-28T17:36:19.325Z,43.60
2022-07-28T17:38:46.190Z,43.68
2022-07-28T17:41:12.965Z,43.87
2022-07-28T17:43:45.131Z,43.14
2022-07-28T17:46:12.729Z,43.42
2022-07-28T17:48:40.104Z,43.86
2022-07-28T17:51:11.105Z,43.71
2022-07-28T17:54:02.850Z,44.09
2022-07-28T17:56:40.148Z,43.99
2022-07-28T17:59:08.701Z,43.56
2022-07-28T18:01:38.972Z,43.44
2022-07-28T18:04:09.392Z,42.84
2022-07-28T18:06:37.458Z,43.39
2022-07-28T18:09:08.168Z,43.65
2022-07-28T18:11:57.769Z,43.64
2022-07-28T18:14:29.343Z,43.35
2022-07-28T18:16:56.909Z,43.67
2022-07-28T18:19:23.883Z,43.89
2022-07-28T18:21:50.756Z,43.87
2022-07-28T18:24:18.588Z,43.86
2022-07-28T18:26:45.997Z,43.59
2022-07-28T18:29:12.747Z,44.22
2022-07-28T18:31:45.811Z,43.69
2022-07-28T18:34:14.270Z,44.80
2022-07-28T18:37:18.181Z,44.45
2022-07-28T18:40:17.643Z,43.78
2022-07-28T18:42:46.324Z,44.08
2022-07-28T18:45:13.621Z,43.93
2022-07-28T18:47:45.595Z,44.29
2022-07-28T18:50:28.002Z,44.15
2022-07-28T18:52:58.309Z,44.17
2022-07-28T18:55:25.093Z,43.37
2022-07-28T18:58:25.536Z,43.69
2022-07-28T19:01:13.677Z,44.21
2022-07-28T19:03:48.613Z,44.67
2022-07-28T19:06:52.296Z,44.72
2022-07-28T19:09:28.122Z,44.27
2022-07-28T19:12:06.839Z,44.03
2022-07-28T19:14:44.214Z,44.14
2022-07-28T19:17:22.952Z,44.29
2022-07-28T19:20:10.236Z,44.67
2022-07-28T19:22:59.735Z,44.52
2022-07-28T19:25:45.964Z,44.91
2022-07-28T19:28:25.776Z,44.70
2022-07-28T19:31:10.571Z,45.01
2022-07-28T19:33:49.434Z,45.34
2022-07-28T19:39:25.104Z,45.99
2022-07-28T19:41:56.043Z,46.24
2022-07-28T19:44:22.882Z,46.00
2022-07-28T19:46:49.569Z,46.27
2022-07-28T19:49:16.970Z,46.29
2022-07-28T19:51:43.852Z,46.55
2022-07-28T19:54:12.652Z,46.60
2022-07-28T19:56:42.169Z,46.36
2022-07-28T19:59:09.599Z,46.02
2022-07-28T20:01:36.421Z,46.35
2022-07-28T20:04:15.959Z,46.49
2022-07-28T20:06:42.981Z,46.65
2022-07-28T20:09:09.784Z,46.95
2022-07-28T20:11:37.061Z,46.81
2022-07-28T20:14:03.956Z,47.04
2022-07-28T20:16:31.052Z,47.10
2022-07-28T20:19:00.263Z,47.09
2022-07-28T20:21:27.457Z,47.52
2022-07-28T20:23:55.887Z,47.45
2022-07-28T20:26:26.037Z,47.32
2022-07-28T20:28:58.598Z,47.38
2022-07-28T20:31:25.625Z,47.96
2022-07-28T20:33:52.912Z,47.14
2022-07-28T20:36:19.707Z,47.16
2022-07-28T20:38:46.602Z,47.12
2022-07-28T20:41:13.563Z,47.45
2022-07-28T20:43:40.421Z,47.06
2022-07-28T20:46:07.514Z,47.06
2022-07-28T20:48:46.919Z,47.22
2022-07-28T20:51:30.497Z,47.12
2022-07-28T20:54:17.371Z,47.30
2022-07-28T20:57:22.167Z,47.25
2022-07-28T21:00:11.492Z,47.54
2022-07-28T21:03:00.048Z,47.30
2022-07-28T21:05:54.449Z,47.65
2022-07-28T21:08:53.518Z,47.84
2022-07-28T21:11:38.177Z,48.27
2022-07-28T21:14:17.410Z,48.03
2022-07-28T21:17:01.513Z,48.99
2022-07-28T21:20:05.573Z,49.03
2022-07-28T21:22:48.358Z,48.90
2022-07-28T21:25:33.346Z,49.38
2022-07-28T21:28:24.367Z,49.66
2022-07-28T21:30:51.174Z,49.75
2022-07-28T21:33:23.030Z,50.25
2022-07-28T21:35:50.353Z,50.49
2022-07-28T21:38:19.976Z,50.26
2022-07-28T21:40:46.854Z,50.64
2022-07-28T21:43:13.797Z,50.39
2022-07-28T21:45:40.547Z,50.64
2022-07-28T21:48:07.470Z,50.95
2022-07-28T21:50:36.609Z,51.08
2022-07-28T21:53:04.525Z,51.01
2022-07-28T21:55:31.289Z,50.79
2022-07-28T21:58:03.188Z,50.91
2022-07-28T22:00:30.006Z,50.76
2022-07-28T22:03:01.372Z,50.93
2022-07-28T22:05:29.651Z,51.41
2022-07-28T22:07:56.371Z,51.56
2022-07-28T22:10:34.052Z,52.15
2022-07-28T22:13:00.723Z,52.03
2022-07-28T22:15:27.475Z,51.90
2022-07-28T22:17:54.359Z,52.75
2022-07-28T22:20:21.883Z,52.46
2022-07-28T22:22:48.885Z,53.00
2022-07-28T22:25:15.639Z,52.30
2022-07-28T22:27:42.396Z,52.31
2022-07-28T22:30:09.495Z,52.82
2022-07-28T22:32:36.167Z,52.34
2022-07-28T22:35:03.164Z,52.15
2022-07-28T22:37:29.877Z,53.46
2022-07-28T22:39:56.569Z,53.28
2022-07-28T22:42:23.384Z,52.66
2022-07-28T22:44:50.166Z,53.10
2022-07-28T22:47:16.875Z,53.11
2022-07-28T22:49:43.755Z,54.34
2022-07-28T22:52:10.471Z,54.44
2022-07-28T22:57:26.173Z,55.21
2022-07-28T22:59:54.253Z,54.95
2022-07-28T23:02:21.152Z,54.43
2022-07-28T23:04:51.745Z,54.72
2022-07-28T23:07:18.925Z,54.55
2022-07-28T23:09:46.379Z,54.97
2022-07-28T23:12:13.216Z,56.24
2022-07-28T23:14:40.175Z,55.53
2022-07-28T23:17:07.087Z,54.56
2022-07-28T23:19:33.849Z,54.35
2022-07-28T23:22:00.657Z,55.43
2022-07-28T23:24:27.428Z,54.56
2022-07-28T23:26:54.282Z,54.62
2022-07-28T23:29:22.231Z,54.39
2022-07-28T23:31:49.734Z,54.35
2022-07-28T23:34:16.903Z,54.90
2022-07-28T23:36:44.538Z,55.48
2022-07-28T23:39:11.360Z,55.22
2022-07-28T23:41:38.372Z,55.00
2022-07-28T23:44:05.405Z,55.53
2022-07-28T23:46:32.563Z,55.54
2022-07-28T23:48:59.394Z,56.43
2022-07-28T23:51:46.914Z,56.95
2022-07-28T23:54:14.431Z,57.38
2022-07-28T23:56:41.647Z,57.79
2022-07-28T23:59:13.502Z,58.23
